Time;durP1;ratioP1;P1;durP2;ratioP2;P2;SDS_P1;SDS_P2;PMS_P1;PMS_P2;Temp;Humidity;BMP_temperature;BMP_pressure;BME280_temperature;BME280_humidity;BME280_pressure;Samples;Min_cycle;Max_cycle;Signal;HPM_P1;HPM_P2
2023/06/08 00:02:00;;;;;;;2.90;2.60;;;26.40;37.40;;;;;;5065648;28;45390;-71
2023/06/08 00:04:30;;;;;;;2.67;2.38;;;26.40;36.90;;;;;;5050036;28;45415;-71
2023/06/08 00:06:57;;;;;;;2.90;2.60;;;26.40;36.80;;;;;;5062597;28;45347;-71
2023/06/08 00:09:24;;;;;;;3.55;2.58;;;26.30;36.80;;;;;;5067074;28;45368;-71
2023/06/08 00:11:55;;;;;;;2.53;2.33;;;26.30;36.80;;;;;;5086064;27;45485;-70
2023/06/08 00:14:22;;;;;;;2.72;2.22;;;26.30;36.80;;;;;;5076204;27;46703;-71
2023/06/08 00:16:49;;;;;;;3.10;2.80;;;26.30;36.80;;;;;;5065576;28;45328;-71
2023/06/08 00:19:16;;;;;;;3.65;2.55;;;26.30;36.90;;;;;;5065435;28;45328;-71
2023/06/08 00:21:42;;;;;;;2.63;2.40;;;26.30;36.90;;;;;;5064866;28;45371;-72
2023/06/08 00:24:09;;;;;;;2.60;2.40;;;26.20;36.80;;;;;;5064705;28;46493;-74
2023/06/08 00:26:36;;;;;;;3.60;2.70;;;26.20;36.80;;;;;;5064612;28;45338;-73
2023/06/08 00:29:04;;;;;;;3.55;3.03;;;26.20;36.90;;;;;;5062586;27;45644;-75
2023/06/08 00:31:31;;;;;;;3.88;2.70;;;26.20;37.00;;;;;;5051390;28;45585;-73
2023/06/08 00:33:58;;;;;;;3.00;2.50;;;26.20;37.00;;;;;;5061836;28;45424;-73
2023/06/08 00:36:25;;;;;;;3.53;2.67;;;26.10;36.90;;;;;;5065047;28;45246;-74
2023/06/08 00:38:52;;;;;;;3.10;2.80;;;26.10;37.00;;;;;;5065401;28;45351;-73
2023/06/08 00:41:19;;;;;;;4.25;2.65;;;26.10;37.00;;;;;;5055689;28;45515;-74
2023/06/08 00:43:45;;;;;;;3.45;2.83;;;26.10;37.00;;;;;;5044729;28;46382;-74
2023/06/08 00:46:14;;;;;;;4.47;3.08;;;26.10;37.10;;;;;;5062888;28;45513;-74
2023/06/08 00:48:41;;;;;;;3.72;2.90;;;26.00;37.00;;;;;;5065106;28;45340;-73
2023/06/08 00:51:08;;;;;;;3.20;2.58;;;26.00;37.10;;;;;;5059240;28;45108;-74
2023/06/08 00:53:35;;;;;;;3.05;2.65;;;26.00;37.00;;;;;;5044414;28;46419;-73
2023/06/08 00:56:02;;;;;;;3.10;2.80;;;26.00;37.10;;;;;;5046697;28;45621;-74
2023/06/08 00:58:29;;;;;;;2.80;2.60;;;26.00;37.00;;;;;;5058787;28;45233;-74
2023/06/08 01:00:59;;;;;;;4.68;2.60;;;26.00;37.10;;;;;;5061011;28;45412;-73
2023/06/08 01:03:33;;;;;;;3.45;2.90;;;26.00;37.10;;;;;;5062601;28;45524;-75
2023/06/08 01:06:00;;;;;;;2.75;2.47;;;25.90;37.10;;;;;;5073554;28;46458;-73
2023/06/08 01:08:30;;;;;;;2.97;2.58;;;26.00;37.10;;;;;;5045930;28;45491;-74
2023/06/08 01:11:00;;;;;;;3.45;2.63;;;25.90;37.00;;;;;;5044936;28;45319;-74
2023/06/08 01:13:29;;;;;;;3.13;2.50;;;25.90;37.00;;;;;;5064881;28;46392;-72
2023/06/08 01:15:59;;;;;;;3.55;2.83;;;25.90;37.20;;;;;;5085701;27;45431;-75
2023/06/08 01:18:27;;;;;;;3.10;2.75;;;25.90;37.20;;;;;;5048132;28;45390;-74
2023/06/08 01:21:07;;;;;;;3.40;2.67;;;25.80;37.10;;;;;;5048260;28;45257;-74
2023/06/08 01:23:44;;;;;;;4.18;2.40;;;25.80;37.10;;;;;;5053168;28;46219;-72
2023/06/08 01:26:15;;;;;;;2.75;2.50;;;25.80;37.00;;;;;;5064215;28;45490;-72
2023/06/08 01:28:42;;;;;;;2.80;2.50;;;25.80;37.20;;;;;;5047503;28;45257;-71
2023/06/08 01:31:09;;;;;;;2.83;2.42;;;25.80;37.20;;;;;;5048853;27;45369;-72
2023/06/08 01:33:36;;;;;;;2.90;2.60;;;25.80;37.20;;;;;;5055031;28;45484;-71
2023/06/08 01:36:06;;;;;;;3.17;2.55;;;25.70;37.10;;;;;;5047576;28;45341;-71
2023/06/08 01:38:37;;;;;;;2.30;2.10;;;25.70;37.10;;;;;;5047780;28;45328;-71
2023/06/08 01:41:07;;;;;;;3.78;2.70;;;25.70;37.20;;;;;;5047969;28;45402;-71
2023/06/08 01:43:35;;;;;;;2.50;2.30;;;25.70;37.20;;;;;;5057302;28;46392;-70
2023/06/08 01:46:02;;;;;;;2.63;2.42;;;25.70;37.20;;;;;;5058683;28;45529;-71
2023/06/08 01:48:29;;;;;;;3.50;2.20;;;25.70;37.20;;;;;;5048172;28;45397;-71
2023/06/08 01:50:55;;;;;;;3.00;2.70;;;25.70;37.20;;;;;;5047837;28;45308;-71
2023/06/08 01:53:22;;;;;;;2.50;2.30;;;25.60;37.20;;;;;;5052139;28;45476;-70
2023/06/08 01:55:49;;;;;;;2.63;2.42;;;25.60;37.20;;;;;;5067084;28;45595;-71
2023/06/08 01:58:16;;;;;;;3.47;2.47;;;25.60;37.20;;;;;;5053920;28;45525;-70
2023/06/08 02:00:44;;;;;;;2.38;2.20;;;25.60;37.20;;;;;;5061701;28;45384;-70
2023/06/08 02:03:11;;;;;;;3.28;2.80;;;25.60;37.30;;;;;;5067272;28;47659;-70
2023/06/08 02:05:38;;;;;;;3.08;2.78;;;25.60;37.30;;;;;;5067497;28;45323;-70
2023/06/08 02:08:05;;;;;;;3.55;2.80;;;25.60;37.30;;;;;;5067596;28;45467;-70
2023/06/08 02:10:32;;;;;;;2.67;2.33;;;25.60;37.30;;;;;;5067720;28;45431;-70
2023/06/08 02:12:59;;;;;;;3.00;2.70;;;25.60;37.40;;;;;;5067300;28;45336;-70
2023/06/08 02:15:26;;;;;;;3.05;2.38;;;25.50;37.30;;;;;;5067309;28;45265;-70
2023/06/08 02:17:59;;;;;;;2.35;2.15;;;25.50;37.30;;;;;;5067397;28;45250;-70
2023/06/08 02:20:25;;;;;;;2.20;2.00;;;25.50;37.30;;;;;;5067544;28;45400;-70
2023/06/08 02:22:52;;;;;;;3.50;2.50;;;25.40;37.40;;;;;;5067161;28;46363;-70
2023/06/08 02:25:19;;;;;;;2.58;2.38;;;25.40;37.50;;;;;;5066594;28;45386;-70
2023/06/08 02:27:48;;;;;;;2.97;2.53;;;25.40;37.40;;;;;;5066580;28;45407;-70
2023/06/08 02:30:16;;;;;;;2.95;2.08;;;25.40;37.50;;;;;;5067371;28;45265;-70
2023/06/08 02:32:45;;;;;;;3.03;2.40;;;25.30;37.40;;;;;;5067095;28;46394;-70
2023/06/08 02:35:13;;;;;;;2.78;2.58;;;25.30;37.50;;;;;;5067008;28;45285;-70
2023/06/08 02:37:42;;;;;;;2.88;2.58;;;25.30;37.60;;;;;;5067186;28;45332;-70
2023/06/08 02:40:10;;;;;;;3.38;2.42;;;25.30;37.50;;;;;;5067299;28;45311;-70
2023/06/08 02:42:37;;;;;;;2.88;2.63;;;25.30;37.50;;;;;;5066698;28;46406;-70
2023/06/08 02:45:04;;;;;;;2.65;2.45;;;25.30;37.40;;;;;;5066893;28;45391;-70
2023/06/08 02:47:31;;;;;;;2.53;2.33;;;25.20;37.50;;;;;;5066891;28;45245;-70
2023/06/08 02:49:58;;;;;;;3.00;2.45;;;25.20;37.60;;;;;;5066986;28;45339;-70
2023/06/08 02:52:26;;;;;;;2.40;2.20;;;25.20;37.60;;;;;;5066758;28;47336;-70
2023/06/08 02:54:53;;;;;;;2.60;2.33;;;25.20;37.60;;;;;;5066871;28;45512;-70
2023/06/08 02:57:20;;;;;;;2.60;2.30;;;25.10;37.60;;;;;;5066818;28;45276;-70
2023/06/08 02:59:47;;;;;;;2.80;2.50;;;25.10;37.60;;;;;;5067029;28;45180;-70
2023/06/08 03:02:14;;;;;;;2.78;2.55;;;25.10;37.70;;;;;;5066279;28;46725;-70
2023/06/08 03:04:43;;;;;;;2.58;2.38;;;25.00;37.60;;;;;;5066451;28;45395;-70
2023/06/08 03:07:15;;;;;;;2.92;2.40;;;25.00;37.70;;;;;;5066908;28;45412;-70
2023/06/08 03:09:43;;;;;;;2.78;2.38;;;25.00;37.70;;;;;;5066560;28;45499;-70
2023/06/08 03:12:12;;;;;;;2.30;2.10;;;25.00;37.70;;;;;;5066347;28;45301;-70
2023/06/08 03:14:40;;;;;;;2.40;2.20;;;25.00;37.80;;;;;;5066464;28;45393;-70
2023/06/08 03:17:07;;;;;;;2.30;2.10;;;24.90;37.70;;;;;;5066536;28;45396;-70
2023/06/08 03:19:34;;;;;;;2.38;2.17;;;24.90;37.70;;;;;;5066683;28;45400;-70
2023/06/08 03:22:02;;;;;;;2.67;2.47;;;24.90;37.90;;;;;;5066197;28;46399;-70
2023/06/08 03:24:31;;;;;;;2.30;2.10;;;24.80;37.80;;;;;;5066241;28;45313;-70
2023/06/08 03:26:59;;;;;;;2.50;2.30;;;24.80;37.90;;;;;;5066394;28;45301;-70
2023/06/08 03:29:26;;;;;;;2.40;2.20;;;24.80;37.90;;;;;;5066327;28;45315;-70
2023/06/08 03:31:53;;;;;;;2.40;2.20;;;24.80;37.90;;;;;;5066112;28;46603;-70
2023/06/08 03:34:20;;;;;;;2.70;2.50;;;24.80;38.00;;;;;;5063491;28;45336;-70
2023/06/08 03:36:47;;;;;;;2.40;2.20;;;24.70;38.00;;;;;;5065959;28;45412;-70
2023/06/08 03:39:14;;;;;;;3.00;2.20;;;24.70;38.00;;;;;;5066268;28;45326;-70
2023/06/08 03:41:42;;;;;;;2.50;2.30;;;24.70;38.00;;;;;;5065924;28;45304;-70
2023/06/08 03:44:10;;;;;;;2.33;2.22;;;24.70;38.00;;;;;;5065892;28;45296;-70
2023/06/08 03:46:37;;;;;;;2.47;2.28;;;24.70;38.10;;;;;;5066256;28;45361;-70
2023/06/08 03:49:03;;;;;;;2.25;2.03;;;24.70;38.10;;;;;;5066007;28;45534;-70
2023/06/08 03:51:30;;;;;;;2.40;2.20;;;24.70;38.10;;;;;;5065738;28;45455;-69
2023/06/08 03:53:57;;;;;;;2.58;2.38;;;24.70;38.10;;;;;;5065848;28;45295;-70
2023/06/08 03:56:25;;;;;;;2.40;2.20;;;24.60;38.10;;;;;;5066050;28;45292;-70
2023/06/08 03:58:52;;;;;;;3.10;2.55;;;24.60;38.10;;;;;;5065957;28;45408;-70
2023/06/08 04:01:23;;;;;;;2.50;2.38;;;24.60;38.10;;;;;;5065916;28;47634;-69
2023/06/08 04:03:50;;;;;;;2.42;2.22;;;24.60;38.20;;;;;;5065400;28;45521;-69
2023/06/08 04:06:18;;;;;;;2.40;2.13;;;24.50;38.40;;;;;;5065774;28;45379;-69
2023/06/08 04:08:45;;;;;;;2.60;2.40;;;24.50;38.10;;;;;;5065581;28;45699;-69
2023/06/08 04:11:12;;;;;;;2.10;2.00;;;24.50;38.10;;;;;;5065370;28;45379;-71
2023/06/08 04:13:39;;;;;;;2.10;1.90;;;24.50;38.20;;;;;;5065517;28;45269;-71
2023/06/08 04:16:08;;;;;;;2.35;2.15;;;24.50;38.10;;;;;;5065594;28;45409;-71
2023/06/08 04:18:36;;;;;;;2.35;2.15;;;24.50;38.20;;;;;;5065733;28;45289;-70
2023/06/08 04:21:05;;;;;;;2.90;2.45;;;24.50;38.20;;;;;;5065280;28;46377;-71
2023/06/08 04:23:33;;;;;;;2.45;2.25;;;24.40;38.30;;;;;;5065395;28;45394;-71
2023/06/08 04:26:00;;;;;;;2.58;2.38;;;24.40;38.30;;;;;;5065451;28;45319;-71
2023/06/08 04:28:28;;;;;;;2.28;2.08;;;24.40;38.30;;;;;;5065482;28;45389;-71
2023/06/08 04:30:55;;;;;;;2.40;2.22;;;24.40;38.20;;;;;;5065147;28;46414;-71
2023/06/08 04:33:23;;;;;;;2.10;1.90;;;24.40;38.20;;;;;;5065139;28;45313;-71
2023/06/08 04:35:51;;;;;;;2.28;2.00;;;24.40;38.20;;;;;;5065448;28;45356;-70
2023/06/08 04:38:18;;;;;;;3.25;2.17;;;24.40;38.20;;;;;;5065455;28;45250;-71
2023/06/08 04:40:48;;;;;;;2.65;2.35;;;24.40;38.30;;;;;;5065222;28;46393;-70
2023/06/08 04:43:15;;;;;;;2.28;2.08;;;24.40;38.30;;;;;;5065177;28;45319;-71
2023/06/08 04:45:43;;;;;;;2.47;2.13;;;24.40;38.40;;;;;;5065398;28;45321;-69
2023/06/08 04:48:10;;;;;;;4.15;2.30;;;24.40;38.40;;;;;;5065326;28;45346;-69
2023/06/08 04:50:37;;;;;;;2.28;1.95;;;24.40;38.40;;;;;;5067561;28;45306;-71
2023/06/08 04:53:10;;;;;;;2.55;2.35;;;24.40;38.40;;;;;;5068769;28;45390;-69
2023/06/08 04:55:37;;;;;;;2.40;2.20;;;24.40;38.40;;;;;;5069040;28;45245;-71
2023/06/08 04:58:04;;;;;;;2.10;1.90;;;24.30;38.30;;;;;;5068853;28;45594;-69
2023/06/08 05:00:32;;;;;;;2.53;2.33;;;24.30;38.40;;;;;;5068512;28;45486;-70
2023/06/08 05:02:59;;;;;;;2.30;2.10;;;24.30;38.50;;;;;;5068282;28;45308;-70
2023/06/08 05:05:25;;;;;;;2.33;2.13;;;24.30;38.40;;;;;;5066145;28;45361;-70
2023/06/08 05:07:52;;;;;;;3.38;2.55;;;24.30;38.40;;;;;;5065928;28;45413;-70
2023/06/08 05:10:21;;;;;;;2.33;2.13;;;24.30;38.40;;;;;;5068302;28;45417;-70
2023/06/08 05:12:48;;;;;;;4.28;2.55;;;24.40;38.40;;;;;;5068449;28;45336;-70
2023/06/08 05:15:15;;;;;;;4.03;2.67;;;24.40;38.40;;;;;;5068416;28;45261;-70
2023/06/08 05:17:41;;;;;;;2.50;2.30;;;24.30;38.40;;;;;;5068621;28;45309;-70
2023/06/08 05:20:09;;;;;;;3.05;2.22;;;24.30;38.40;;;;;;5068134;28;46421;-70
2023/06/08 05:22:35;;;;;;;2.50;2.10;;;24.30;38.40;;;;;;5068254;28;45269;-70
2023/06/08 05:25:02;;;;;;;2.25;2.15;;;24.30;38.40;;;;;;5068346;28;45349;-70
2023/06/08 05:27:31;;;;;;;2.80;2.60;;;24.30;38.40;;;;;;5068239;28;45530;-70
2023/06/08 05:29:57;;;;;;;2.08;1.95;;;24.30;38.40;;;;;;5068043;28;45549;-70
2023/06/08 05:32:24;;;;;;;2.40;2.10;;;24.30;38.40;;;;;;5068057;28;45317;-70
2023/06/08 05:34:51;;;;;;;2.28;2.08;;;24.30;38.40;;;;;;5068310;28;45308;-71
2023/06/08 05:37:18;;;;;;;2.67;2.08;;;24.30;38.40;;;;;;5068445;28;45179;-71
2023/06/08 05:39:45;;;;;;;2.30;2.10;;;24.30;38.50;;;;;;5067768;28;46418;-71
2023/06/08 05:42:12;;;;;;;2.53;2.33;;;24.30;38.40;;;;;;5067952;28;45277;-71
2023/06/08 05:44:40;;;;;;;2.00;1.90;;;24.30;38.40;;;;;;5068008;28;45382;-69
2023/06/08 05:47:07;;;;;;;2.60;2.40;;;24.30;38.40;;;;;;5068118;28;45419;-71
2023/06/08 05:49:34;;;;;;;2.30;2.10;;;24.30;38.40;;;;;;5067509;28;45326;-71
2023/06/08 05:52:00;;;;;;;2.20;2.00;;;24.30;38.40;;;;;;5067688;28;45245;-71
2023/06/08 05:54:27;;;;;;;2.35;2.17;;;24.30;38.40;;;;;;5067949;28;45423;-71
2023/06/08 05:56:54;;;;;;;2.17;2.00;;;24.40;38.50;;;;;;5068345;28;45364;-71
2023/06/08 05:59:21;;;;;;;2.47;2.28;;;24.40;38.50;;;;;;5067506;28;45549;-69
2023/06/08 06:01:49;;;;;;;2.67;2.45;;;24.40;38.50;;;;;;5067511;28;45265;-72
2023/06/08 06:04:16;;;;;;;2.40;2.20;;;24.40;39.10;;;;;;5067226;28;45360;-70
2023/06/08 06:06:43;;;;;;;2.30;2.10;;;24.40;38.50;;;;;;5067741;28;45305;-71
2023/06/08 06:09:11;;;;;;;2.33;2.13;;;24.40;38.50;;;;;;5067375;28;46378;-71
2023/06/08 06:11:37;;;;;;;2.30;2.10;;;24.40;39.10;;;;;;5067287;28;45308;-71
2023/06/08 06:14:04;;;;;;;2.30;2.10;;;24.40;38.50;;;;;;5067487;28;45311;-71
2023/06/08 06:16:31;;;;;;;2.03;1.90;;;24.50;38.50;;;;;;5067570;28;45423;-71
2023/06/08 06:18:59;;;;;;;2.70;2.50;;;24.50;38.50;;;;;;5067126;28;45462;-71
2023/06/08 06:21:26;;;;;;;2.92;2.22;;;24.50;38.50;;;;;;5067429;28;45289;-71
2023/06/08 06:23:53;;;;;;;2.67;2.35;;;24.50;38.40;;;;;;5067326;28;45265;-69
2023/06/08 06:26:19;;;;;;;2.42;1.80;;;24.50;38.50;;;;;;5067503;28;45424;-71
2023/06/08 06:28:46;;;;;;;2.58;2.20;;;24.50;38.50;;;;;;5067358;28;45716;-71
2023/06/08 06:31:13;;;;;;;2.30;2.10;;;24.50;38.50;;;;;;5067032;28;45296;-71
2023/06/08 06:33:40;;;;;;;2.40;2.20;;;24.50;38.40;;;;;;5067284;28;45402;-71
2023/06/08 06:36:08;;;;;;;2.30;2.10;;;24.60;38.50;;;;;;5067259;28;45480;-71
2023/06/08 06:38:35;;;;;;;2.22;2.03;;;24.60;38.50;;;;;;5066777;28;45295;-71
2023/06/08 06:41:03;;;;;;;2.60;2.40;;;24.60;38.50;;;;;;5066974;28;45343;-71
2023/06/08 06:43:30;;;;;;;3.15;2.13;;;24.60;38.50;;;;;;5067048;28;45372;-71
2023/06/08 06:45:57;;;;;;;2.35;2.15;;;24.60;38.40;;;;;;5067143;28;45347;-71
2023/06/08 06:48:23;;;;;;;2.28;2.00;;;24.70;38.40;;;;;;5066815;28;47604;-70
2023/06/08 06:50:50;;;;;;;2.40;2.20;;;24.70;38.30;;;;;;5066812;28;45298;-70
2023/06/08 06:53:19;;;;;;;2.05;1.95;;;24.70;38.40;;;;;;5064261;28;45355;-70
2023/06/08 06:55:46;;;;;;;2.40;2.30;;;24.70;38.40;;;;;;5067121;28;45465;-70
2023/06/08 06:58:14;;;;;;;2.28;2.15;;;24.70;38.40;;;;;;5066513;28;45504;-70
2023/06/08 07:00:41;;;;;;;2.22;2.03;;;24.70;38.40;;;;;;5066652;28;45360;-70
2023/06/08 07:03:09;;;;;;;3.10;2.28;;;24.70;38.40;;;;;;5066660;28;45365;-70
2023/06/08 07:05:36;;;;;;;2.20;2.00;;;24.80;38.40;;;;;;5066922;28;45486;-70
2023/06/08 07:08:03;;;;;;;2.38;2.17;;;24.80;38.40;;;;;;5066305;28;47524;-70
2023/06/08 07:10:31;;;;;;;2.20;2.10;;;24.80;38.30;;;;;;5066472;28;45323;-70
2023/06/08 07:12:58;;;;;;;2.13;1.95;;;24.80;38.30;;;;;;5065899;28;45340;-70
2023/06/08 07:15:25;;;;;;;2.35;2.17;;;24.80;38.30;;;;;;5066694;28;45400;-70
2023/06/08 07:17:52;;;;;;;2.20;2.00;;;24.80;38.30;;;;;;5066156;28;46577;-70
2023/06/08 07:20:19;;;;;;;2.47;2.28;;;24.90;38.30;;;;;;5063667;28;45341;-69
2023/06/08 07:22:46;;;;;;;2.38;2.17;;;24.90;38.30;;;;;;5066495;28;45320;-70
2023/06/08 07:25:14;;;;;;;2.42;2.22;;;24.90;38.30;;;;;;5066438;28;45401;-71
2023/06/08 07:27:44;;;;;;;2.10;2.00;;;24.90;38.30;;;;;;5066060;28;46361;-71
2023/06/08 07:30:12;;;;;;;3.08;2.38;;;24.90;38.30;;;;;;5066103;28;45212;-71
2023/06/08 07:32:39;;;;;;;2.47;2.28;;;24.90;38.30;;;;;;5066394;28;45399;-71
2023/06/08 07:35:07;;;;;;;2.20;2.00;;;25.00;39.00;;;;;;5066326;28;45453;-71
2023/06/08 07:37:35;;;;;;;2.38;2.17;;;25.00;38.30;;;;;;5065890;28;45471;-70
2023/06/08 07:40:05;;;;;;;1.92;1.83;;;25.00;38.30;;;;;;5065925;28;45451;-71
2023/06/08 07:42:32;;;;;;;3.05;2.22;;;25.00;38.30;;;;;;5066246;28;45276;-71
2023/06/08 07:45:00;;;;;;;2.15;2.03;;;25.00;38.30;;;;;;5066241;28;45459;-71
2023/06/08 07:47:27;;;;;;;2.28;2.08;;;25.00;38.30;;;;;;5065639;28;45295;-72
2023/06/08 07:49:54;;;;;;;2.20;2.00;;;25.00;38.20;;;;;;5065869;28;45375;-71
2023/06/08 07:52:21;;;;;;;2.05;1.95;;;25.00;38.20;;;;;;5065797;28;45371;-71
2023/06/08 07:54:48;;;;;;;2.17;1.98;;;25.10;38.30;;;;;;5065878;28;45444;-71
2023/06/08 07:57:14;;;;;;;2.35;2.10;;;25.10;38.20;;;;;;5065550;28;45404;-71
2023/06/08 07:59:41;;;;;;;1.90;1.80;;;25.10;38.30;;;;;;5065750;28;45245;-71
2023/06/08 08:02:09;;;;;;;2.30;2.13;;;25.10;38.30;;;;;;5065559;28;45459;-71
2023/06/08 08:04:36;;;;;;;2.28;2.08;;;25.10;38.30;;;;;;5066006;28;45462;-71
2023/06/08 08:07:03;;;;;;;2.13;2.03;;;25.10;38.20;;;;;;5065497;28;45649;-71
2023/06/08 08:09:30;;;;;;;2.20;2.10;;;25.20;38.30;;;;;;5065481;28;45269;-71
2023/06/08 08:11:57;;;;;;;2.47;2.28;;;25.20;38.30;;;;;;5065553;28;45192;-71
2023/06/08 08:14:24;;;;;;;2.45;2.25;;;25.20;38.30;;;;;;5065917;28;45443;-71
2023/06/08 08:16:51;;;;;;;2.10;1.90;;;25.20;38.20;;;;;;5065358;28;45291;-71
2023/06/08 08:19:19;;;;;;;2.50;2.30;;;25.30;38.30;;;;;;5065389;28;45260;-71
2023/06/08 08:21:46;;;;;;;2.38;2.17;;;25.30;38.90;;;;;;5065610;28;45299;-71
2023/06/08 08:24:13;;;;;;;2.30;2.10;;;25.30;38.30;;;;;;5064392;28;45326;-71
2023/06/08 08:26:40;;;;;;;2.63;2.17;;;25.30;38.20;;;;;;5065252;28;46366;-71
2023/06/08 08:29:07;;;;;;;2.40;2.20;;;25.30;38.20;;;;;;5065212;28;45401;-71
2023/06/08 08:31:34;;;;;;;2.00;1.90;;;25.40;38.20;;;;;;5065210;28;45257;-71
2023/06/08 08:34:00;;;;;;;2.80;2.17;;;25.40;38.20;;;;;;5065596;28;45340;-72
2023/06/08 08:36:29;;;;;;;2.28;2.17;;;25.40;38.10;;;;;;5065164;28;45435;-71
2023/06/08 08:38:56;;;;;;;2.17;1.98;;;25.40;38.10;;;;;;5064967;28;45319;-71
2023/06/08 08:41:23;;;;;;;2.08;1.92;;;25.50;38.10;;;;;;5065271;28;45344;-71
2023/06/08 08:43:52;;;;;;;2.58;2.38;;;25.50;38.10;;;;;;5065405;28;45426;-71
2023/06/08 08:46:21;;;;;;;1.90;1.80;;;25.50;38.10;;;;;;5064895;28;45308;-71
2023/06/08 08:48:48;;;;;;;2.22;2.05;;;25.50;38.10;;;;;;5064933;28;45377;-71
2023/06/08 08:51:19;;;;;;;2.63;2.05;;;25.60;38.10;;;;;;5065074;28;45275;-71
2023/06/08 08:53:47;;;;;;;2.40;2.20;;;25.60;38.60;;;;;;5065296;28;45467;-71
2023/06/08 08:56:15;;;;;;;2.22;1.98;;;25.60;38.00;;;;;;5064784;28;46684;-71
2023/06/08 08:58:43;;;;;;;2.40;2.20;;;25.60;38.00;;;;;;5065218;28;45559;-72
2023/06/08 09:01:10;;;;;;;2.08;1.95;;;25.70;38.10;;;;;;5065124;28;45317;-71
2023/06/08 09:03:37;;;;;;;2.40;2.20;;;25.70;38.00;;;;;;5064918;28;45528;-71
2023/06/08 09:06:04;;;;;;;2.55;2.35;;;25.70;38.00;;;;;;5064752;28;46405;-71
2023/06/08 09:08:31;;;;;;;2.10;2.00;;;25.70;38.00;;;;;;5062040;28;45329;-71
2023/06/08 09:11:04;;;;;;;1.98;1.88;;;25.80;38.10;;;;;;5064802;28;45316;-71
2023/06/08 09:13:31;;;;;;;2.47;2.20;;;25.80;38.10;;;;;;5065060;28;45265;-71
2023/06/08 09:15:58;;;;;;;2.42;2.10;;;25.80;38.10;;;;;;5064730;28;46599;-71
2023/06/08 09:18:25;;;;;;;2.05;1.90;;;25.90;38.10;;;;;;5064533;28;45415;-71
2023/06/08 09:20:52;;;;;;;2.00;1.90;;;25.90;38.10;;;;;;5064905;28;45435;-71
2023/06/08 09:23:22;;;;;;;2.10;2.00;;;25.90;38.10;;;;;;5064892;28;45304;-71
2023/06/08 09:25:51;;;;;;;2.33;2.13;;;25.90;38.10;;;;;;5064552;28;46371;-70
2023/06/08 09:28:22;;;;;;;2.20;2.00;;;26.00;38.10;;;;;;5064463;28;45336;-70
2023/06/08 09:30:49;;;;;;;2.00;1.90;;;26.00;38.10;;;;;;5064592;28;45424;-70
2023/06/08 09:33:24;;;;;;;2.00;1.90;;;26.00;38.10;;;;;;5064763;28;45474;-70
2023/06/08 09:36:05;;;;;;;2.22;2.10;;;26.00;38.20;;;;;;5065920;28;45443;-70
2023/06/08 09:38:32;;;;;;;1.98;1.88;;;26.10;38.20;;;;;;5067871;28;45359;-70
2023/06/08 09:41:13;;;;;;;3.05;2.17;;;26.10;38.10;;;;;;5068090;28;45411;-70
2023/06/08 09:43:42;;;;;;;2.40;2.20;;;26.10;38.10;;;;;;5068244;28;45361;-71
2023/06/08 09:46:11;;;;;;;2.25;2.05;;;26.20;38.20;;;;;;5067739;28;46626;-70
2023/06/08 09:48:39;;;;;;;2.00;1.90;;;26.20;38.20;;;;;;5067630;28;45317;-70
2023/06/08 09:51:06;;;;;;;2.05;1.95;;;26.20;38.20;;;;;;5067774;28;45305;-70
2023/06/08 09:53:33;;;;;;;2.40;2.10;;;26.20;38.20;;;;;;5067907;28;45460;-70
2023/06/08 09:56:00;;;;;;;2.47;2.00;;;26.30;38.30;;;;;;5067493;28;46640;-70
2023/06/08 09:58:27;;;;;;;1.98;1.88;;;26.30;38.30;;;;;;5067519;28;45432;-70
2023/06/08 10:01:02;;;;;;;2.42;2.22;;;26.30;38.30;;;;;;5067860;28;45400;-70
2023/06/08 10:03:30;;;;;;;2.30;2.10;;;26.40;38.40;;;;;;5067501;28;45256;-70
2023/06/08 10:05:57;;;;;;;3.58;2.15;;;26.40;38.40;;;;;;5067512;28;47062;-70
2023/06/08 10:08:25;;;;;;;2.75;2.13;;;26.40;38.40;;;;;;5067257;28;45315;-70
2023/06/08 10:10:51;;;;;;;2.50;2.30;;;26.50;38.50;;;;;;5067481;28;45400;-70
2023/06/08 10:13:18;;;;;;;2.60;2.40;;;26.50;38.50;;;;;;5067720;28;45371;-70
2023/06/08 10:15:45;;;;;;;2.97;2.13;;;26.50;38.50;;;;;;5067281;28;46734;-70
2023/06/08 10:18:13;;;;;;;2.72;2.40;;;26.50;38.50;;;;;;5067309;28;45313;-70
2023/06/08 10:20:40;;;;;;;2.53;2.08;;;26.50;38.50;;;;;;5067425;28;45435;-70
2023/06/08 10:23:07;;;;;;;2.88;2.20;;;26.60;38.60;;;;;;5067449;28;45424;-70
2023/06/08 10:25:34;;;;;;;2.20;2.10;;;26.60;38.60;;;;;;5067294;28;46341;-71
2023/06/08 10:28:04;;;;;;;2.22;2.00;;;26.70;38.60;;;;;;5066974;28;45322;-72
2023/06/08 10:30:39;;;;;;;3.33;2.10;;;26.70;39.30;;;;;;5067128;28;45400;-71
2023/06/08 10:33:09;;;;;;;2.75;2.47;;;26.70;38.60;;;;;;5067329;28;45404;-69
2023/06/08 10:35:37;;;;;;;2.50;2.10;;;26.80;38.80;;;;;;5066843;28;45304;-70
2023/06/08 10:38:11;;;;;;;2.10;2.00;;;26.80;38.70;;;;;;5066865;28;45300;-70
2023/06/08 10:40:47;;;;;;;3.88;2.38;;;26.80;38.60;;;;;;5067133;28;45394;-70
2023/06/08 10:43:14;;;;;;;2.38;2.17;;;26.80;38.60;;;;;;5067230;28;45329;-70
2023/06/08 10:45:43;;;;;;;2.65;1.90;;;26.90;38.70;;;;;;5066721;28;47432;-70
2023/06/08 10:48:10;;;;;;;2.15;1.98;;;26.90;39.20;;;;;;5065785;28;45302;-70
2023/06/08 10:50:38;;;;;;;2.75;2.15;;;27.00;38.60;;;;;;5066914;28;45396;-70
2023/06/08 10:53:05;;;;;;;2.15;1.95;;;27.00;38.70;;;;;;5066987;28;45526;-70
2023/06/08 10:55:32;;;;;;;2.92;2.08;;;27.00;38.60;;;;;;5066635;28;46494;-72
2023/06/08 10:58:05;;;;;;;2.33;2.15;;;27.10;38.70;;;;;;5066697;28;45246;-73
2023/06/08 11:00:42;;;;;;;3.40;2.00;;;27.10;38.70;;;;;;5066831;28;45452;-74
2023/06/08 11:03:09;;;;;;;2.08;1.88;;;27.10;38.60;;;;;;5066844;28;45573;-73
2023/06/08 11:05:39;;;;;;;2.58;1.92;;;27.20;38.70;;;;;;5065608;28;46409;-72
2023/06/08 11:08:07;;;;;;;2.50;2.30;;;27.20;38.80;;;;;;5065947;28;45427;-74
2023/06/08 11:10:34;;;;;;;4.30;2.33;;;27.30;39.50;;;;;;5066376;28;45344;-72
2023/06/08 11:13:05;;;;;;;2.83;2.63;;;27.40;40.10;;;;;;5066750;28;45317;-74
2023/06/08 11:15:32;;;;;;;3.72;2.63;;;27.40;39.90;;;;;;5066521;28;45364;-74
2023/06/08 11:17:59;;;;;;;3.15;2.50;;;27.50;40.00;;;;;;5066511;28;45404;-74
2023/06/08 11:20:26;;;;;;;3.85;2.97;;;27.60;40.40;;;;;;5066688;28;45280;-73
2023/06/08 11:22:54;;;;;;;3.08;2.78;;;27.60;40.40;;;;;;5066739;28;45365;-73
2023/06/08 11:25:21;;;;;;;3.22;2.65;;;27.70;41.20;;;;;;5066434;28;45602;-74
2023/06/08 11:27:52;;;;;;;5.43;2.92;;;27.70;40.50;;;;;;5066101;28;45333;-73
2023/06/08 11:30:19;;;;;;;6.57;3.28;;;27.80;40.30;;;;;;5066620;28;45233;-73
2023/06/08 11:32:47;;;;;;;4.35;3.15;;;27.90;41.10;;;;;;5066607;28;45364;-73
2023/06/08 11:35:14;;;;;;;3.95;3.08;;;27.90;40.40;;;;;;5066372;28;47301;-73
2023/06/08 11:37:43;;;;;;;6.60;3.00;;;28.00;40.00;;;;;;5066094;28;45403;-73
2023/06/08 11:40:12;;;;;;;3.13;2.90;;;28.00;40.00;;;;;;5066319;28;45293;-73
2023/06/08 11:42:39;;;;;;;3.53;2.90;;;28.10;40.20;;;;;;5066516;28;45346;-73
2023/06/08 11:45:07;;;;;;;4.68;3.03;;;28.10;39.80;;;;;;5065998;28;45253;-73
2023/06/08 11:47:34;;;;;;;3.75;3.38;;;28.20;39.80;;;;;;5065880;28;45431;-73
2023/06/08 11:50:03;;;;;;;4.32;3.25;;;28.30;40.70;;;;;;5066241;28;45333;-72
2023/06/08 11:52:33;;;;;;;4.22;3.13;;;28.30;40.20;;;;;;5066146;28;45546;-73
2023/06/08 11:55:01;;;;;;;4.75;3.20;;;28.40;40.00;;;;;;5065942;28;45889;-73
2023/06/08 11:57:40;;;;;;;4.57;3.45;;;28.50;40.30;;;;;;5066146;28;45525;-73
2023/06/08 12:00:08;;;;;;;6.57;3.05;;;28.50;40.40;;;;;;5065679;28;45395;-72
2023/06/08 12:02:36;;;;;;;4.95;3.38;;;28.60;39.80;;;;;;5065767;28;45524;-72
2023/06/08 12:05:04;;;;;;;3.92;3.10;;;28.70;40.10;;;;;;5065817;28;46355;-72
2023/06/08 12:07:32;;;;;;;4.90;3.35;;;28.70;39.90;;;;;;5065602;28;45343;-72
2023/06/08 12:09:59;;;;;;;5.38;3.38;;;28.80;39.50;;;;;;5060350;28;45281;-74
2023/06/08 12:12:28;;;;;;;6.68;3.25;;;28.90;39.50;;;;;;5065815;28;45378;-74
2023/06/08 12:14:56;;;;;;;8.10;3.70;;;28.90;40.10;;;;;;5066643;28;46370;-78
2023/06/08 12:17:25;;;;;;;9.38;3.20;;;29.00;40.10;;;;;;5066970;28;45342;-79
2023/06/08 12:19:52;;;;;;;7.60;3.60;;;29.10;39.80;;;;;;5063804;28;45315;-74
2023/06/08 12:22:19;;;;;;;5.78;3.83;;;29.20;40.20;;;;;;5065925;28;45317;-71
2023/06/08 12:24:46;;;;;;;7.40;3.47;;;29.30;40.30;;;;;;5065474;28;46141;-74
2023/06/08 12:27:13;;;;;;;7.03;3.95;;;29.40;40.30;;;;;;5065265;28;45320;-74
2023/06/08 12:29:41;;;;;;;6.78;3.28;;;29.40;40.10;;;;;;5065724;28;45447;-79
2023/06/08 12:32:10;;;;;;;9.63;3.47;;;29.50;40.10;;;;;;5066242;28;45350;-79
2023/06/08 12:34:36;;;;;;;5.97;3.95;;;29.50;39.90;;;;;;5064080;28;45213;-76
2023/06/08 12:37:04;;;;;;;7.00;3.75;;;29.60;39.70;;;;;;5070700;28;45495;-79
2023/06/08 12:39:31;;;;;;;6.50;3.40;;;29.60;39.60;;;;;;5069800;28;45340;-77
2023/06/08 12:41:59;;;;;;;5.07;3.60;;;29.60;39.40;;;;;;5076951;28;45537;-77
2023/06/08 12:44:26;;;;;;;10.15;3.63;;;29.60;39.30;;;;;;5074309;28;47369;-79
2023/06/08 12:46:53;;;;;;;5.35;3.60;;;29.70;39.30;;;;;;5066859;27;45319;-77
2023/06/08 12:49:22;;;;;;;5.80;3.47;;;29.80;39.60;;;;;;5064833;28;45486;-75
2023/06/08 12:51:48;;;;;;;5.03;3.13;;;29.80;39.50;;;;;;5062298;28;45551;-76